createdAt,value
2022-12-20T00:01:58.277Z,99.00
2022-12-20T00:04:28.333Z,99.00
2022-12-20T00:06:56.744Z,98.90
2022-12-20T00:09:25.661Z,98.80
2022-12-20T00:11:54.107Z,98.80
2022-12-20T00:14:22.486Z,98.80
2022-12-20T00:16:50.917Z,98.80
2022-12-20T00:19:19.324Z,98.80
2022-12-20T00:21:49.162Z,98.80
2022-12-20T00:24:23.886Z,98.90
2022-12-20T00:26:54.364Z,98.90
2022-12-20T00:29:22.819Z,98.90
2022-12-20T00:31:51.373Z,98.90
2022-12-20T00:34:19.941Z,98.90
2022-12-20T00:36:49.876Z,98.90
2022-12-20T00:39:18.363Z,98.90
2022-12-20T00:41:46.796Z,98.90
2022-12-20T00:44:15.292Z,98.90
2022-12-20T00:46:43.737Z,98.80
2022-12-20T00:49:12.219Z,98.80
2022-12-20T00:51:40.654Z,98.80
2022-12-20T00:54:10.474Z,98.80
2022-12-20T00:56:38.971Z,98.90
2022-12-20T00:59:07.746Z,99.00
2022-12-20T01:01:36.359Z,99.00
2022-12-20T01:04:05.342Z,99.00
2022-12-20T01:06:34.278Z,99.00
2022-12-20T01:09:02.751Z,99.00
2022-12-20T01:11:35.763Z,99.00
2022-12-20T01:14:08.052Z,99.00
2022-12-20T01:16:40.609Z,98.90
2022-12-20T01:19:12.213Z,98.90
2022-12-20T01:21:44.637Z,99.20
2022-12-20T01:24:13.991Z,99.00
2022-12-20T01:26:43.989Z,99.00
2022-12-20T01:29:12.494Z,99.00
2022-12-20T01:31:40.988Z,99.00
2022-12-20T01:34:09.656Z,98.90
2022-12-20T01:36:39.811Z,98.90
2022-12-20T01:39:12.510Z,99.00
2022-12-20T01:41:43.683Z,99.00
2022-12-20T01:44:59.146Z,98.90
2022-12-20T01:47:30.794Z,98.90
2022-12-20T01:50:01.168Z,99.00
2022-12-20T01:52:36.703Z,99.00
2022-12-20T01:55:11.770Z,99.00
2022-12-20T01:57:47.643Z,98.90
2022-12-20T02:00:17.630Z,98.90
2022-12-20T02:02:49.552Z,99.00
2022-12-20T02:05:21.125Z,99.00
2022-12-20T02:07:53.788Z,99.00
2022-12-20T02:10:28.705Z,98.90
2022-12-20T02:13:08.916Z,98.90
2022-12-20T02:15:47.375Z,99.00
2022-12-20T02:18:24.151Z,99.00
2022-12-20T02:21:27.624Z,99.00
2022-12-20T02:24:45.572Z,98.90
2022-12-20T02:28:00.758Z,98.90
2022-12-20T02:30:35.649Z,98.70
2022-12-20T02:33:08.599Z,98.70
2022-12-20T02:35:39.849Z,98.80
2022-12-20T02:38:28.776Z,98.80
2022-12-20T02:41:02.267Z,98.80
2022-12-20T02:43:51.356Z,98.80
2022-12-20T02:46:23.839Z,98.80
2022-12-20T02:48:54.062Z,98.80
2022-12-20T02:51:27.715Z,98.80
2022-12-20T02:53:56.331Z,98.80
2022-12-20T02:56:30.219Z,98.90
2022-12-20T02:59:04.191Z,98.90
2022-12-20T03:01:39.052Z,98.80
2022-12-20T03:04:09.390Z,98.80
2022-12-20T03:06:37.844Z,98.80
2022-12-20T03:09:06.247Z,98.80
2022-12-20T03:11:34.656Z,98.80
2022-12-20T03:14:03.291Z,98.80
2022-12-20T03:16:33.194Z,98.80
2022-12-20T03:19:01.677Z,98.80
2022-12-20T03:21:30.057Z,98.80
2022-12-20T03:23:58.453Z,98.70
2022-12-20T03:26:27.142Z,98.80
2022-12-20T03:28:55.607Z,98.80
2022-12-20T03:31:24.184Z,98.80
2022-12-20T03:33:54.079Z,98.90
2022-12-20T03:36:24.065Z,98.80
2022-12-20T03:38:53.689Z,98.80
2022-12-20T03:41:23.938Z,98.80
2022-12-20T03:43:54.507Z,98.80
2022-12-20T03:46:23.087Z,98.70
2022-12-20T03:48:51.527Z,98.80
2022-12-20T03:51:21.393Z,98.80
2022-12-20T03:53:49.855Z,98.80
2022-12-20T03:56:19.370Z,98.90
2022-12-20T03:58:47.891Z,98.80
2022-12-20T04:01:24.550Z,98.80
2022-12-20T04:03:53.383Z,98.90
2022-12-20T04:06:24.384Z,98.80
2022-12-20T04:08:52.836Z,98.80
2022-12-20T04:11:21.376Z,98.80
2022-12-20T04:13:52.106Z,98.80
2022-12-20T04:16:24.470Z,98.80
2022-12-20T04:18:53.025Z,98.70
2022-12-20T04:21:26.346Z,98.70
2022-12-20T04:23:54.839Z,98.70
2022-12-20T04:26:23.809Z,98.70
2022-12-20T04:28:52.310Z,98.70
2022-12-20T04:31:24.059Z,98.70
2022-12-20T04:33:53.105Z,98.70
2022-12-20T04:36:21.766Z,98.80
2022-12-20T04:38:51.665Z,98.80
2022-12-20T04:41:23.612Z,98.90
2022-12-20T04:43:53.979Z,98.90
2022-12-20T04:46:23.767Z,99.00
2022-12-20T04:48:58.239Z,99.00
2022-12-20T04:51:28.038Z,98.90
2022-12-20T04:53:57.408Z,98.90
2022-12-20T04:56:28.404Z,98.80
2022-12-20T04:58:59.993Z,98.90
2022-12-20T05:01:28.566Z,98.90
2022-12-20T05:03:57.503Z,98.80
2022-12-20T05:06:25.934Z,98.90
2022-12-20T05:08:55.289Z,98.90
2022-12-20T05:11:25.085Z,98.80
2022-12-20T05:13:53.552Z,98.90
2022-12-20T05:16:22.626Z,98.90
2022-12-20T05:18:51.137Z,98.90
2022-12-20T05:21:37.006Z,98.90
2022-12-20T05:24:23.521Z,98.80
2022-12-20T05:26:53.344Z,98.90
2022-12-20T05:29:21.828Z,98.90
2022-12-20T05:31:50.335Z,98.80
2022-12-20T05:34:19.158Z,98.90
2022-12-20T05:36:47.586Z,98.80
2022-12-20T05:39:16.058Z,98.70
2022-12-20T05:41:44.438Z,98.70
2022-12-20T05:44:15.288Z,98.70
2022-12-20T05:46:43.773Z,98.70
2022-12-20T05:49:12.273Z,98.70
2022-12-20T05:51:40.685Z,98.80
2022-12-20T05:54:09.299Z,98.80
2022-12-20T05:56:37.862Z,98.80
2022-12-20T05:59:06.380Z,98.80
2022-12-20T06:01:36.977Z,98.80
2022-12-20T06:04:05.801Z,98.70
2022-12-20T06:06:34.380Z,98.70
2022-12-20T06:09:02.882Z,98.70
2022-12-20T06:11:31.290Z,98.80
2022-12-20T06:13:59.739Z,98.70
2022-12-20T06:16:28.636Z,98.70
2022-12-20T06:18:58.664Z,98.80
2022-12-20T06:21:28.506Z,98.80
2022-12-20T06:23:56.969Z,98.80
2022-12-20T06:26:25.470Z,98.90
2022-12-20T06:28:57.103Z,98.90
2022-12-20T06:31:25.609Z,99.00
2022-12-20T06:33:54.135Z,99.10
2022-12-20T06:36:23.986Z,99.30
2022-12-20T06:38:52.521Z,99.40
2022-12-20T06:41:21.252Z,99.40
2022-12-20T06:43:49.793Z,99.50
2022-12-20T06:46:18.510Z,99.60
2022-12-20T06:48:47.106Z,99.70
2022-12-20T06:51:15.598Z,99.70
2022-12-20T06:53:45.521Z,99.70
2022-12-20T06:56:13.989Z,99.80
2022-12-20T06:58:42.424Z,99.80
2022-12-20T07:01:13.423Z,99.80
2022-12-20T07:03:42.044Z,99.90
2022-12-20T07:06:10.593Z,99.90
2022-12-20T07:08:39.068Z,99.90
2022-12-20T07:11:10.136Z,99.90
2022-12-20T07:13:38.531Z,99.90
2022-12-20T07:16:08.016Z,99.90
2022-12-20T07:18:36.548Z,99.90
2022-12-20T07:21:07.457Z,99.90
2022-12-20T07:23:35.919Z,99.90
2022-12-20T07:26:05.798Z,99.90
2022-12-20T07:28:35.655Z,99.90
2022-12-20T07:31:05.875Z,99.90
2022-12-20T07:33:35.120Z,99.90
2022-12-20T07:36:04.495Z,99.90
2022-12-20T07:38:33.306Z,99.90
2022-12-20T07:41:01.797Z,99.90
2022-12-20T07:43:30.199Z,99.90
2022-12-20T07:46:00.249Z,99.90
2022-12-20T07:48:28.911Z,99.90
2022-12-20T07:51:02.483Z,99.90
2022-12-20T07:53:32.745Z,99.90
2022-12-20T07:56:03.089Z,99.50
2022-12-20T07:58:32.951Z,99.40
2022-12-20T08:01:04.969Z,99.60
2022-12-20T08:03:39.312Z,99.90
2022-12-20T08:06:09.611Z,99.90
2022-12-20T08:08:44.367Z,99.90
2022-12-20T08:11:13.660Z,99.90
2022-12-20T08:13:46.271Z,99.90
2022-12-20T08:16:16.618Z,99.90
2022-12-20T08:18:45.236Z,99.90
2022-12-20T08:21:14.842Z,99.90
2022-12-20T08:23:43.469Z,99.90
2022-12-20T08:26:12.047Z,99.90
2022-12-20T08:28:40.458Z,99.90
2022-12-20T08:31:10.954Z,99.90
2022-12-20T08:33:41.665Z,99.90
2022-12-20T08:36:14.556Z,99.90
2022-12-20T08:38:43.111Z,99.90
2022-12-20T08:41:14.456Z,99.90
2022-12-20T08:43:43.948Z,99.90
2022-12-20T08:46:13.287Z,99.90
2022-12-20T08:48:43.226Z,99.90
2022-12-20T08:51:13.269Z,99.90
2022-12-20T08:53:42.125Z,99.90
2022-12-20T08:56:13.255Z,99.90
2022-12-20T08:58:42.967Z,99.90
2022-12-20T09:01:14.040Z,99.90
2022-12-20T09:03:44.955Z,99.90
2022-12-20T09:06:16.465Z,99.90
2022-12-20T09:08:44.943Z,99.90
2022-12-20T09:11:15.781Z,99.90
2022-12-20T09:13:47.008Z,99.90
2022-12-20T09:16:17.580Z,99.90
2022-12-20T09:18:50.170Z,99.90
2022-12-20T09:21:19.175Z,99.90
2022-12-20T09:23:48.951Z,99.90
2022-12-20T09:26:19.222Z,99.90
2022-12-20T09:28:47.752Z,99.90
2022-12-20T09:31:18.995Z,99.90
2022-12-20T09:33:49.021Z,99.90
2022-12-20T09:36:23.398Z,99.90
2022-12-20T09:38:52.283Z,99.90
2022-12-20T09:41:37.180Z,99.90
2022-12-20T09:44:13.638Z,99.90
2022-12-20T09:46:42.936Z,99.90
2022-12-20T09:49:19.877Z,99.90
2022-12-20T09:52:26.315Z,99.90
2022-12-20T09:55:03.013Z,99.90
2022-12-20T09:57:45.563Z,99.80
2022-12-20T10:00:16.579Z,99.80
2022-12-20T10:03:08.714Z,99.80
2022-12-20T10:05:44.672Z,99.70
2022-12-20T10:08:33.767Z,99.60
2022-12-20T10:11:11.587Z,99.50
2022-12-20T10:13:56.617Z,99.30
2022-12-20T10:16:40.622Z,99.30
2022-12-20T10:19:49.377Z,99.30
2022-12-20T10:22:26.367Z,99.00
2022-12-20T10:25:03.098Z,99.00
2022-12-20T10:27:36.089Z,98.90
2022-12-20T10:30:12.255Z,98.90
2022-12-20T10:32:41.836Z,98.70
2022-12-20T10:35:26.174Z,98.70
2022-12-20T10:38:08.312Z,98.60
2022-12-20T10:41:18.659Z,98.50
2022-12-20T10:43:29.462Z,98.30
2022-12-20T10:46:01.874Z,98.40
2022-12-20T10:48:34.046Z,98.20
2022-12-20T10:51:06.821Z,98.20
2022-12-20T10:53:50.690Z,98.00
2022-12-20T10:56:24.571Z,97.80
2022-12-20T10:58:57.483Z,97.80
2022-12-20T11:01:32.496Z,97.70
2022-12-20T11:04:03.394Z,97.60
2022-12-20T11:06:44.504Z,97.70
2022-12-20T11:09:33.592Z,97.70
2022-12-20T11:12:06.608Z,97.60
2022-12-20T11:14:39.571Z,97.60
2022-12-20T11:17:26.045Z,97.60
2022-12-20T11:20:13.702Z,97.50
2022-12-20T11:22:56.828Z,97.50
2022-12-20T11:25:47.834Z,97.50
2022-12-20T11:28:39.000Z,97.40
2022-12-20T11:31:21.604Z,97.30
2022-12-20T11:34:04.555Z,97.20
2022-12-20T11:36:56.149Z,97.10
2022-12-20T11:39:39.545Z,97.10
2022-12-20T11:42:18.063Z,96.90
2022-12-20T11:45:08.392Z,96.90
2022-12-20T11:48:08.671Z,96.80
2022-12-20T11:51:00.007Z,96.90
2022-12-20T11:53:37.168Z,96.90
2022-12-20T11:56:15.465Z,96.80
2022-12-20T11:58:54.553Z,96.70
2022-12-20T12:01:31.153Z,96.80
2022-12-20T12:04:14.360Z,96.80
2022-12-20T12:06:46.633Z,96.80
2022-12-20T12:09:23.581Z,96.70
2022-12-20T12:12:07.449Z,96.70
2022-12-20T12:14:50.309Z,96.70
2022-12-20T12:17:27.490Z,96.60
2022-12-20T12:20:10.535Z,96.60
2022-12-20T12:22:41.659Z,96.70
2022-12-20T12:25:16.693Z,96.50
2022-12-20T12:27:45.515Z,96.50
2022-12-20T12:30:17.764Z,96.60
2022-12-20T12:32:54.458Z,96.60
2022-12-20T12:36:06.916Z,96.40
2022-12-20T12:39:21.146Z,96.70
2022-12-20T12:43:10.288Z,96.30
2022-12-20T12:45:47.670Z,96.30
2022-12-20T12:48:20.489Z,96.30
2022-12-20T12:50:52.137Z,96.20
2022-12-20T12:53:25.229Z,96.20
2022-12-20T12:56:12.995Z,96.20
2022-12-20T12:58:48.791Z,96.10
2022-12-20T13:01:50.146Z,96.00
2022-12-20T13:04:30.490Z,96.00
2022-12-20T13:07:03.408Z,95.90
2022-12-20T13:09:43.864Z,95.80
2022-12-20T13:12:56.823Z,95.80
2022-12-20T13:15:52.595Z,95.90
2022-12-20T13:18:29.879Z,96.10
2022-12-20T13:21:38.787Z,96.40
2022-12-20T13:24:56.453Z,96.70
2022-12-20T13:27:32.043Z,96.90
2022-12-20T13:30:18.979Z,97.10
2022-12-20T13:33:25.371Z,97.30
2022-12-20T13:36:21.965Z,97.50
2022-12-20T13:39:01.094Z,97.60
2022-12-20T13:41:42.773Z,97.90
2022-12-20T13:44:42.330Z,97.90
2022-12-20T13:47:46.676Z,98.20
2022-12-20T13:50:40.597Z,98.20
2022-12-20T13:53:19.060Z,98.20
2022-12-20T13:55:48.880Z,98.30
2022-12-20T13:58:20.911Z,98.30
2022-12-20T14:00:50.509Z,98.30
2022-12-20T14:03:25.377Z,98.30
2022-12-20T14:06:00.007Z,98.30
2022-12-20T14:08:34.167Z,98.10
2022-12-20T14:11:14.682Z,98.10
2022-12-20T14:13:43.788Z,98.10
2022-12-20T14:16:17.026Z,97.90
2022-12-20T14:18:50.496Z,97.90
2022-12-20T14:21:20.495Z,97.90
2022-12-20T14:23:52.812Z,98.10
2022-12-20T14:26:28.488Z,98.00
2022-12-20T14:28:59.032Z,97.90
2022-12-20T14:31:31.082Z,97.70
2022-12-20T14:34:06.930Z,97.70
2022-12-20T14:36:36.194Z,97.90
2022-12-20T14:39:26.234Z,97.80
2022-12-20T14:41:59.289Z,97.60
2022-12-20T14:44:29.875Z,97.60
2022-12-20T14:47:00.553Z,97.70
2022-12-20T14:49:31.427Z,97.80
2022-12-20T14:52:15.688Z,97.90
2022-12-20T14:57:46.531Z,98.00
2022-12-20T15:00:24.281Z,98.00
2022-12-20T15:03:01.684Z,98.10
2022-12-20T15:05:56.545Z,98.10
2022-12-20T15:08:30.915Z,98.20
2022-12-20T15:11:04.215Z,98.50
2022-12-20T15:13:35.328Z,98.20
2022-12-20T15:16:06.523Z,98.30
2022-12-20T15:18:35.069Z,98.30
2022-12-20T15:21:07.960Z,98.30
2022-12-20T15:23:36.843Z,98.20
2022-12-20T15:26:06.876Z,98.20
2022-12-20T15:28:35.273Z,98.10
2022-12-20T15:31:05.147Z,98.00
2022-12-20T15:33:35.726Z,97.90
2022-12-20T15:36:04.324Z,97.90
2022-12-20T15:39:11.162Z,98.20
2022-12-20T15:41:25.622Z,98.00
2022-12-20T15:43:58.364Z,98.10
2022-12-20T15:46:27.225Z,98.10
2022-12-20T15:48:56.029Z,98.10
2022-12-20T15:51:32.049Z,98.20
2022-12-20T15:54:03.544Z,98.30
2022-12-20T15:56:33.575Z,98.40
2022-12-20T15:59:12.606Z,98.40
2022-12-20T16:01:50.572Z,98.50
2022-12-20T16:04:20.819Z,98.60
2022-12-20T16:06:51.028Z,98.60
2022-12-20T16:09:19.461Z,98.60
2022-12-20T16:11:49.642Z,98.70
2022-12-20T16:14:22.159Z,98.70
2022-12-20T16:16:51.462Z,98.70
2022-12-20T16:19:19.954Z,98.80
2022-12-20T16:21:51.960Z,98.80
2022-12-20T16:24:22.260Z,98.80
2022-12-20T16:26:52.056Z,98.80
2022-12-20T16:29:20.522Z,98.90
2022-12-20T16:31:49.485Z,98.90
2022-12-20T16:34:19.892Z,98.90
2022-12-20T16:36:48.771Z,98.90
2022-12-20T16:39:17.329Z,98.90
2022-12-20T16:41:45.818Z,98.90
2022-12-20T16:44:19.445Z,98.90
2022-12-20T16:46:47.985Z,98.90
2022-12-20T16:49:20.773Z,98.90
2022-12-20T16:51:50.884Z,98.90
2022-12-20T16:54:22.374Z,98.90
2022-12-20T16:56:55.541Z,98.90
2022-12-20T16:59:26.378Z,98.90
2022-12-20T17:01:57.575Z,98.90
2022-12-20T17:04:27.848Z,98.90
2022-12-20T17:06:56.428Z,98.80
2022-12-20T17:12:17.307Z,98.90
2022-12-20T17:14:47.488Z,98.80
2022-12-20T17:17:16.126Z,98.80
2022-12-20T17:19:44.818Z,98.70
2022-12-20T17:25:00.720Z,98.80
2022-12-20T17:27:29.959Z,98.70
2022-12-20T17:29:59.931Z,98.60
2022-12-20T17:32:28.445Z,98.70
2022-12-20T17:34:56.994Z,98.60
2022-12-20T17:37:25.381Z,99.10
2022-12-20T17:39:53.880Z,98.30
2022-12-20T17:42:28.858Z,98.30
2022-12-20T17:45:00.976Z,98.30
2022-12-20T17:47:29.435Z,98.30
2022-12-20T17:49:58.247Z,98.20
2022-12-20T17:52:26.736Z,98.20
2022-12-20T17:54:55.134Z,98.20
2022-12-20T17:57:23.574Z,98.20
2022-12-20T17:59:52.061Z,98.20
2022-12-20T18:02:25.406Z,98.10
2022-12-20T18:04:54.169Z,98.00
2022-12-20T18:07:22.537Z,98.00
2022-12-20T18:09:52.017Z,98.00
2022-12-20T18:12:20.546Z,97.90
2022-12-20T18:14:50.701Z,98.00
2022-12-20T18:17:19.292Z,97.90
2022-12-20T18:19:49.289Z,97.90
2022-12-20T18:22:18.040Z,97.80
2022-12-20T18:24:46.506Z,97.90
2022-12-20T18:27:15.006Z,97.90
2022-12-20T18:29:43.504Z,97.90
2022-12-20T18:32:12.672Z,97.90
2022-12-20T18:34:41.150Z,97.90
2022-12-20T18:37:11.442Z,97.90
2022-12-20T18:39:40.215Z,97.90
2022-12-20T18:42:08.823Z,97.90
2022-12-20T18:44:37.243Z,97.90
2022-12-20T18:47:05.995Z,97.90
2022-12-20T18:49:36.791Z,97.90
2022-12-20T18:52:05.437Z,97.90
2022-12-20T18:54:35.424Z,97.90
2022-12-20T18:57:06.005Z,97.90
2022-12-20T18:59:35.146Z,98.00
2022-12-20T19:02:03.711Z,98.00
2022-12-20T19:04:32.134Z,98.10
2022-12-20T19:07:00.360Z,98.10
2022-12-20T19:09:28.612Z,98.20
2022-12-20T19:11:58.262Z,98.20
2022-12-20T19:14:26.772Z,98.30
2022-12-20T19:16:55.080Z,98.30
2022-12-20T19:19:23.345Z,98.40
2022-12-20T19:21:51.790Z,98.40
2022-12-20T19:24:20.077Z,98.40
2022-12-20T19:26:48.338Z,98.40
2022-12-20T19:29:18.133Z,98.40
2022-12-20T19:31:47.879Z,98.40
2022-12-20T19:34:16.280Z,98.40
2022-12-20T19:36:45.994Z,98.30
2022-12-20T19:39:16.576Z,98.30
2022-12-20T19:41:55.024Z,98.40
2022-12-20T19:44:34.716Z,98.40
2022-12-20T19:47:06.189Z,98.40
2022-12-20T19:49:35.659Z,98.40
2022-12-20T19:52:04.192Z,98.40
2022-12-20T19:54:32.409Z,98.40
2022-12-20T19:57:00.703Z,98.30
2022-12-20T19:59:30.730Z,98.30
2022-12-20T20:02:00.674Z,98.30
2022-12-20T20:04:29.415Z,98.30
2022-12-20T20:06:57.689Z,98.30
2022-12-20T20:09:25.944Z,98.40
2022-12-20T20:11:54.255Z,98.40
2022-12-20T20:14:22.829Z,98.40
2022-12-20T20:16:51.249Z,98.40
2022-12-20T20:19:20.969Z,98.40
2022-12-20T20:21:49.527Z,98.40
2022-12-20T20:24:17.856Z,98.40
2022-12-20T20:26:46.105Z,98.40
2022-12-20T20:29:14.430Z,98.40
2022-12-20T20:31:42.756Z,98.40
2022-12-20T20:34:11.064Z,98.30
2022-12-20T20:36:40.743Z,98.30
2022-12-20T20:39:09.030Z,98.40
2022-12-20T20:41:37.386Z,98.50
2022-12-20T20:44:05.953Z,98.60
2022-12-20T20:46:34.288Z,98.80
2022-12-20T20:49:02.531Z,99.00
2022-12-20T20:51:30.817Z,99.20
2022-12-20T20:54:00.472Z,99.30
2022-12-20T20:56:28.783Z,99.50
2022-12-20T20:59:04.943Z,99.70
2022-12-20T21:01:35.448Z,99.80
2022-12-20T21:04:04.448Z,99.90
2022-12-20T21:06:40.704Z,99.90
2022-12-20T21:09:11.493Z,99.90
2022-12-20T21:11:40.166Z,99.90
2022-12-20T21:14:08.521Z,99.90
2022-12-20T21:16:36.973Z,99.90
2022-12-20T21:19:05.725Z,99.90
2022-12-20T21:21:34.386Z,99.90
2022-12-20T21:24:02.797Z,99.90
2022-12-20T21:26:32.545Z,99.90
2022-12-20T21:29:01.103Z,99.90
2022-12-20T21:31:29.468Z,99.90
2022-12-20T21:33:58.550Z,99.90
2022-12-20T21:36:27.098Z,99.90
2022-12-20T21:38:56.661Z,99.90
2022-12-20T21:41:26.423Z,99.90
2022-12-20T21:43:57.859Z,99.90
2022-12-20T21:46:27.000Z,99.90
2022-12-20T21:48:55.662Z,99.90
2022-12-20T21:51:25.370Z,99.90
2022-12-20T21:53:55.332Z,99.90
2022-12-20T21:56:24.509Z,99.90
2022-12-20T21:58:53.070Z,99.90
2022-12-20T22:01:24.551Z,99.90
2022-12-20T22:03:55.379Z,99.90
2022-12-20T22:06:23.692Z,99.90
2022-12-20T22:08:52.212Z,99.90
2022-12-20T22:11:20.591Z,99.90
2022-12-20T22:13:48.754Z,99.90
2022-12-20T22:16:18.955Z,99.90
2022-12-20T22:18:51.524Z,99.90
2022-12-20T22:21:21.409Z,99.90
2022-12-20T22:23:50.060Z,99.90
2022-12-20T22:26:19.774Z,99.90
2022-12-20T22:28:50.096Z,99.90
2022-12-20T22:31:18.832Z,99.90
2022-12-20T22:33:47.110Z,99.90
2022-12-20T22:36:17.541Z,99.90
2022-12-20T22:38:46.071Z,99.90
2022-12-20T22:41:15.954Z,99.90
2022-12-20T22:43:45.692Z,99.90
2022-12-20T22:46:14.678Z,99.90
2022-12-20T22:48:43.041Z,99.90
2022-12-20T22:51:13.532Z,99.90
2022-12-20T22:53:43.736Z,99.90
2022-12-20T22:56:12.661Z,99.90
2022-12-20T22:58:41.533Z,99.90
2022-12-20T23:01:12.451Z,99.90
2022-12-20T23:03:41.050Z,99.90
2022-12-20T23:06:11.567Z,99.90
2022-12-20T23:08:40.147Z,99.90
2022-12-20T23:11:32.472Z,99.90
2022-12-20T23:14:18.323Z,99.90
2022-12-20T23:16:46.667Z,99.90
2022-12-20T23:19:14.844Z,99.90
2022-12-20T23:22:00.785Z,99.90
2022-12-20T23:24:28.985Z,99.90
2022-12-20T23:26:58.763Z,99.90
2022-12-20T23:29:27.068Z,99.90
2022-12-20T23:31:55.324Z,99.90
2022-12-20T23:34:24.541Z,99.90
2022-12-20T23:36:52.697Z,99.90
2022-12-20T23:39:20.898Z,99.90
2022-12-20T23:41:49.089Z,99.90
2022-12-20T23:44:18.718Z,99.90
2022-12-20T23:46:46.923Z,99.90
2022-12-20T23:49:15.111Z,99.90
2022-12-20T23:51:43.300Z,99.90
2022-12-20T23:54:12.262Z,99.90
2022-12-20T23:56:40.491Z,99.90
2022-12-20T23:59:08.665Z,99.90
